Time;durP1;ratioP1;P1;durP2;ratioP2;P2;SDS_P1;SDS_P2;PMS_P1;PMS_P2;Temp;Humidity;BMP_temperature;BMP_pressure;BME280_temperature;BME280_humidity;BME280_pressure;Samples;Min_cycle;Max_cycle;Signal;HPM_P1;HPM_P2
2023/11/03 00:00:43;;;;;;;6.53;1.10;;;7.40;1.00;;;;;;7380623;19;20014;-71
2023/11/03 00:03:15;;;;;;;3.65;0.85;;;7.30;1.00;;;;;;7380521;19;20035;-70
2023/11/03 00:05:44;;;;;;;5.07;1.15;;;7.30;1.00;;;;;;7381770;19;20380;-71
2023/11/03 00:08:16;;;;;;;4.88;1.30;;;7.20;1.00;;;;;;7381158;19;20081;-71
2023/11/03 00:10:49;;;;;;;2.40;1.00;;;7.20;1.00;;;;;;7381545;19;20148;-70
2023/11/03 00:13:19;;;;;;;2.47;0.90;;;7.10;1.00;;;;;;7379917;19;20023;-71
2023/11/03 00:15:49;;;;;;;9.52;1.60;;;7.00;1.00;;;;;;7380490;19;20018;-70
2023/11/03 00:18:20;;;;;;;4.18;1.20;;;6.90;1.00;;;;;;7381659;19;20011;-71
2023/11/03 00:20:52;;;;;;;4.13;1.50;;;6.90;1.00;;;;;;7381990;19;20045;-70
2023/11/03 00:23:22;;;;;;;6.72;1.20;;;6.80;1.00;;;;;;7379897;19;20010;-71
2023/11/03 00:25:55;;;;;;;4.38;1.20;;;6.70;1.40;;;;;;7381522;19;20480;-71
2023/11/03 00:28:25;;;;;;;3.13;1.00;;;6.70;4.40;;;;;;7377766;19;20036;-70
2023/11/03 00:30:55;;;;;;;4.18;1.80;;;6.60;8.60;;;;;;7377857;19;20014;-70
2023/11/03 00:33:25;;;;;;;2.65;1.35;;;6.60;8.40;;;;;;7375252;19;20011;-70
2023/11/03 00:35:55;;;;;;;4.05;1.05;;;6.60;9.40;;;;;;7373078;19;20364;-70
2023/11/03 00:38:25;;;;;;;2.78;1.38;;;6.60;13.60;;;;;;7362810;19;20266;-70
2023/11/03 00:40:58;;;;;;;4.03;1.20;;;6.60;14.70;;;;;;7365609;19;20095;-70
2023/11/03 00:43:28;;;;;;;2.53;0.85;;;6.70;13.00;;;;;;7364664;19;20097;-70
2023/11/03 00:45:59;;;;;;;5.55;1.25;;;6.70;10.50;;;;;;7363255;19;20019;-69
2023/11/03 00:48:29;;;;;;;4.00;1.10;;;6.70;8.30;;;;;;7362799;19;20063;-70
2023/11/03 00:50:59;;;;;;;3.03;1.05;;;6.70;8.50;;;;;;7364019;19;20511;-71
2023/11/03 00:53:29;;;;;;;5.53;1.33;;;6.60;10.40;;;;;;7362580;19;20106;-70
2023/11/03 00:56:04;;;;;;;5.10;1.38;;;6.60;11.30;;;;;;7339829;19;20140;-70
2023/11/03 00:58:35;;;;;;;5.57;1.10;;;6.60;10.70;;;;;;7363106;19;20014;-70
2023/11/03 01:01:07;;;;;;;5.70;1.42;;;6.60;13.50;;;;;;7364465;19;20006;-70
2023/11/03 01:03:38;;;;;;;2.97;1.00;;;6.50;12.20;;;;;;7359823;19;20027;-70
2023/11/03 01:06:10;;;;;;;3.85;1.20;;;6.60;10.30;;;;;;7364710;19;21196;-70
2023/11/03 01:08:40;;;;;;;5.10;1.42;;;6.50;12.80;;;;;;7366183;19;20806;-71
2023/11/03 01:11:15;;;;;;;2.80;1.05;;;6.50;13.20;;;;;;7376852;19;20006;-70
2023/11/03 01:13:45;;;;;;;2.92;1.42;;;6.60;10.40;;;;;;7374742;19;20035;-71
2023/11/03 01:16:16;;;;;;;7.22;1.40;;;6.60;8.30;;;;;;7374750;19;20083;-71
2023/11/03 01:18:46;;;;;;;4.03;1.10;;;6.50;7.80;;;;;;7374043;19;20068;-70
2023/11/03 01:21:16;;;;;;;4.22;1.50;;;6.50;9.70;;;;;;7376337;19;20026;-71
2023/11/03 01:23:47;;;;;;;4.03;1.17;;;6.60;9.30;;;;;;7375981;19;20741;-71
2023/11/03 01:26:24;;;;;;;5.28;2.05;;;6.60;8.60;;;;;;7377427;19;20379;-70
2023/11/03 01:28:56;;;;;;;8.05;1.83;;;6.50;9.60;;;;;;7376070;19;20018;-72
2023/11/03 01:31:26;;;;;;;5.78;1.63;;;6.50;11.10;;;;;;7375164;19;20080;-70
2023/11/03 01:33:56;;;;;;;6.80;1.58;;;6.40;13.70;;;;;;7374183;19;20133;-70
2023/11/03 01:36:26;;;;;;;7.03;1.55;;;6.40;16.20;;;;;;7374297;19;20014;-70
2023/11/03 01:38:56;;;;;;;4.90;1.45;;;6.40;16.90;;;;;;7376307;19;20020;-70
2023/11/03 01:41:29;;;;;;;4.10;1.00;;;6.40;18.30;;;;;;7375747;19;20013;-71
2023/11/03 01:44:06;;;;;;;5.20;1.20;;;6.30;19.00;;;;;;7375928;19;20047;-71
2023/11/03 01:46:38;;;;;;;3.40;1.52;;;6.30;17.80;;;;;;7377781;19;20010;-70
2023/11/03 01:49:10;;;;;;;3.88;1.20;;;6.30;16.20;;;;;;7377157;19;20036;-70
2023/11/03 01:51:42;;;;;;;6.88;1.20;;;6.40;13.00;;;;;;7369951;19;20497;-71
2023/11/03 01:54:13;;;;;;;4.85;1.20;;;6.40;10.90;;;;;;7374448;19;20010;-71
2023/11/03 01:56:45;;;;;;;3.28;1.10;;;6.40;8.60;;;;;;7375494;19;20010;-70
2023/11/03 01:59:16;;;;;;;5.03;1.30;;;6.50;5.30;;;;;;7375712;19;20433;-70
2023/11/03 02:01:48;;;;;;;6.15;1.20;;;6.50;3.70;;;;;;7376203;19;20025;-70
2023/11/03 02:04:18;;;;;;;3.72;1.10;;;6.40;4.30;;;;;;7373826;19;20010;-71
2023/11/03 02:06:49;;;;;;;3.65;1.10;;;6.40;3.60;;;;;;7375109;19;20033;-70
2023/11/03 02:09:19;;;;;;;3.78;1.27;;;6.40;4.60;;;;;;7375057;19;20014;-70
2023/11/03 02:11:51;;;;;;;5.22;1.40;;;6.30;4.80;;;;;;7374508;19;20026;-71
2023/11/03 02:14:22;;;;;;;8.50;1.92;;;6.20;5.40;;;;;;7374971;19;20021;-70
2023/11/03 02:16:52;;;;;;;5.68;1.30;;;6.10;6.80;;;;;;7374537;19;20052;-70
2023/11/03 02:19:23;;;;;;;7.15;1.55;;;6.10;8.70;;;;;;7380911;19;20515;-71
2023/11/03 02:21:54;;;;;;;4.13;1.58;;;6.00;12.60;;;;;;7385270;19;20014;-70
2023/11/03 02:24:27;;;;;;;6.00;2.00;;;5.90;17.10;;;;;;7374042;19;20014;-71
2023/11/03 02:26:57;;;;;;;7.18;1.58;;;5.90;22.90;;;;;;7376399;19;20021;-70
2023/11/03 02:29:26;;;;;;;7.85;2.05;;;5.90;24.80;;;;;;7379575;19;20014;-70
2023/11/03 02:31:56;;;;;;;9.23;2.08;;;5.80;26.20;;;;;;7381364;19;20526;-70
2023/11/03 02:34:26;;;;;;;7.20;1.80;;;5.80;28.40;;;;;;7380198;19;20010;-70
2023/11/03 02:36:56;;;;;;;3.13;1.52;;;5.70;30.00;;;;;;7381581;19;20528;-70
2023/11/03 02:39:30;;;;;;;5.97;1.83;;;5.80;29.50;;;;;;7381029;19;20022;-70
2023/11/03 02:41:59;;;;;;;4.65;1.50;;;5.70;31.70;;;;;;7382397;19;20491;-70
2023/11/03 02:44:29;;;;;;;4.82;1.73;;;5.70;35.40;;;;;;7380330;19;20407;-70
2023/11/03 02:46:59;;;;;;;7.78;1.83;;;5.70;36.70;;;;;;7380859;19;20010;-69
2023/11/03 02:49:30;;;;;;;4.55;1.13;;;5.60;40.40;;;;;;7381412;19;20011;-70
2023/11/03 02:52:00;;;;;;;6.30;1.75;;;5.60;43.70;;;;;;7378888;19;20015;-70
2023/11/03 02:54:33;;;;;;;7.68;1.80;;;5.50;48.70;;;;;;7379873;19;20404;-71
2023/11/03 02:57:02;;;;;;;4.55;1.83;;;5.70;53.70;;;;;;7381478;19;20980;-71
2023/11/03 02:59:32;;;;;;;7.97;2.00;;;5.70;49.80;;;;;;7380752;19;20537;-70
2023/11/03 03:02:03;;;;;;;5.10;1.40;;;5.90;41.40;;;;;;7380790;19;20014;-71
2023/11/03 03:04:34;;;;;;;3.60;1.50;;;5.90;34.00;;;;;;7379695;19;20089;-71
2023/11/03 03:07:04;;;;;;;4.07;1.67;;;5.90;29.20;;;;;;7380739;19;20344;-70
2023/11/03 03:09:37;;;;;;;5.63;1.98;;;6.00;25.10;;;;;;7380037;19;20065;-71
2023/11/03 03:12:08;;;;;;;16.35;7.95;;;6.00;23.30;;;;;;7382031;19;20019;-70
2023/11/03 03:14:38;;;;;;;13.52;6.90;;;6.00;21.20;;;;;;7379796;19;20024;-70
2023/11/03 03:17:08;;;;;;;12.35;5.07;;;6.00;22.00;;;;;;7380351;19;20612;-71
2023/11/03 03:19:38;;;;;;;8.82;4.28;;;6.00;21.20;;;;;;7379372;19;20860;-69
2023/11/03 03:22:08;;;;;;;7.38;1.90;;;6.00;20.00;;;;;;7378240;19;20021;-69
2023/11/03 03:24:40;;;;;;;5.75;1.88;;;6.00;16.10;;;;;;7373358;19;20018;-70
2023/11/03 03:27:10;;;;;;;4.13;1.33;;;6.00;15.30;;;;;;7379379;19;20017;-71
2023/11/03 03:29:41;;;;;;;4.15;1.35;;;6.00;16.40;;;;;;7379593;19;20018;-71
2023/11/03 03:32:11;;;;;;;8.95;1.77;;;6.00;14.90;;;;;;7380308;19;20386;-71
2023/11/03 03:34:41;;;;;;;5.28;1.40;;;5.90;15.80;;;;;;7383390;19;20074;-71
2023/11/03 03:37:12;;;;;;;7.05;1.40;;;5.90;18.20;;;;;;7384800;19;20018;-72
2023/11/03 03:39:44;;;;;;;7.63;1.67;;;5.90;23.00;;;;;;7379943;19;20006;-72
2023/11/03 03:42:14;;;;;;;5.30;1.48;;;5.80;22.70;;;;;;7382329;19;20110;-70
2023/11/03 03:44:45;;;;;;;3.50;1.35;;;5.90;25.70;;;;;;7381066;19;20031;-70
2023/11/03 03:47:15;;;;;;;11.77;1.50;;;6.00;22.00;;;;;;7382264;19;20014;-71
2023/11/03 03:49:45;;;;;;;4.72;1.48;;;6.00;14.70;;;;;;7382350;19;20077;-70
2023/11/03 03:52:15;;;;;;;5.73;1.30;;;6.20;13.00;;;;;;7382011;19;20386;-71
2023/11/03 03:54:47;;;;;;;4.20;1.17;;;6.30;11.50;;;;;;7380607;19;20420;-71
2023/11/03 03:57:17;;;;;;;3.95;1.58;;;6.30;10.30;;;;;;7381338;19;20019;-70
2023/11/03 03:59:47;;;;;;;5.93;1.48;;;6.30;9.70;;;;;;7381822;19;20023;-71
2023/11/03 04:02:17;;;;;;;4.20;1.67;;;6.40;3.80;;;;;;7370525;19;20015;-71
2023/11/03 04:04:47;;;;;;;7.07;1.65;;;6.40;2.90;;;;;;7380819;19;20150;-71
2023/11/03 04:07:18;;;;;;;8.07;1.58;;;6.40;3.60;;;;;;7380715;19;20018;-72
2023/11/03 04:09:50;;;;;;;10.30;1.85;;;6.40;4.70;;;;;;7381450;19;20506;-71
2023/11/03 04:12:21;;;;;;;4.93;1.38;;;6.50;4.80;;;;;;7380555;19;20018;-71
2023/11/03 04:14:50;;;;;;;5.35;2.17;;;6.50;2.50;;;;;;7379439;19;20039;-71
2023/11/03 04:17:20;;;;;;;5.35;1.52;;;6.60;2.40;;;;;;7375366;19;20030;-71
2023/11/03 04:19:51;;;;;;;5.57;1.63;;;6.60;1.00;;;;;;7379400;19;20011;-71
2023/11/03 04:22:22;;;;;;;5.95;1.50;;;6.70;1.00;;;;;;7380429;19;20733;-71
2023/11/03 04:24:54;;;;;;;4.75;1.50;;;6.70;1.00;;;;;;7379202;19;20010;-71
2023/11/03 04:27:25;;;;;;;6.47;2.05;;;6.80;1.00;;;;;;7380714;19;20010;-71
2023/11/03 04:29:54;;;;;;;3.45;1.38;;;6.80;1.00;;;;;;7382434;19;20367;-71
2023/11/03 04:32:24;;;;;;;4.05;1.63;;;6.70;1.00;;;;;;7380426;19;20014;-71
2023/11/03 04:34:55;;;;;;;4.93;1.83;;;6.70;1.00;;;;;;7379852;19;20605;-71
2023/11/03 04:37:25;;;;;;;4.72;1.58;;;6.70;1.00;;;;;;7380745;19;20011;-71
2023/11/03 04:39:57;;;;;;;4.88;1.58;;;6.70;1.00;;;;;;7379452;19;20015;-71
2023/11/03 04:42:28;;;;;;;3.10;1.33;;;6.70;1.00;;;;;;7380280;19;20020;-70
2023/11/03 04:44:58;;;;;;;5.65;1.58;;;6.70;1.00;;;;;;7379198;19;20045;-71
2023/11/03 04:47:28;;;;;;;4.45;1.50;;;6.80;1.00;;;;;;7379303;19;20478;-71
2023/11/03 04:49:58;;;;;;;5.50;1.27;;;6.80;1.00;;;;;;7380928;19;20014;-71
2023/11/03 04:52:27;;;;;;;4.80;1.35;;;6.80;1.00;;;;;;7377095;19;20010;-71
2023/11/03 04:55:00;;;;;;;2.63;0.90;;;6.80;1.00;;;;;;7378256;19;20018;-71
2023/11/03 04:57:30;;;;;;;5.63;1.27;;;6.80;1.00;;;;;;7380371;19;20010;-71
2023/11/03 05:00:00;;;;;;;3.90;1.55;;;6.80;1.00;;;;;;7379477;19;20010;-71
2023/11/03 05:02:31;;;;;;;5.95;1.65;;;6.80;1.00;;;;;;7378375;19;20002;-71
2023/11/03 05:05:01;;;;;;;3.33;1.40;;;6.90;1.00;;;;;;7377615;19;20077;-70
2023/11/03 05:07:31;;;;;;;4.32;1.63;;;6.90;1.00;;;;;;7378526;19;20463;-69
2023/11/03 05:10:05;;;;;;;6.20;1.63;;;7.00;1.00;;;;;;7379434;19;20015;-70
2023/11/03 05:12:35;;;;;;;7.43;2.47;;;7.00;1.00;;;;;;7378627;19;20034;-70
2023/11/03 05:15:07;;;;;;;7.57;1.83;;;7.00;1.00;;;;;;7377227;19;20377;-70
2023/11/03 05:17:37;;;;;;;3.22;1.63;;;7.00;1.00;;;;;;7379927;19;20033;-70
2023/11/03 05:20:09;;;;;;;6.13;1.77;;;7.00;1.00;;;;;;7377334;19;20014;-70
2023/11/03 05:22:39;;;;;;;4.68;1.40;;;7.10;1.00;;;;;;7377818;19;20784;-70
2023/11/03 05:25:12;;;;;;;3.85;1.25;;;7.10;1.00;;;;;;7377265;19;20525;-70
2023/11/03 05:27:42;;;;;;;4.03;1.45;;;7.10;1.00;;;;;;7375764;19;20003;-70
2023/11/03 05:30:14;;;;;;;3.50;1.30;;;7.10;1.00;;;;;;7378323;19;20113;-70
2023/11/03 05:32:44;;;;;;;5.15;1.25;;;7.10;1.00;;;;;;7374503;19;20017;-70
2023/11/03 05:35:14;;;;;;;4.30;1.63;;;7.10;1.00;;;;;;7378203;19;20038;-70
2023/11/03 05:37:44;;;;;;;1.77;0.80;;;7.10;1.00;;;;;;7375203;19;20031;-70
2023/11/03 05:40:18;;;;;;;3.65;1.55;;;7.20;1.00;;;;;;7377289;19;20086;-70
2023/11/03 05:42:48;;;;;;;6.47;1.42;;;7.20;1.00;;;;;;7377719;19;20035;-70
2023/11/03 05:45:18;;;;;;;4.47;1.23;;;7.20;1.00;;;;;;7375987;19;20014;-71
2023/11/03 05:47:48;;;;;;;4.20;1.25;;;7.20;1.00;;;;;;7377779;19;20007;-71
2023/11/03 05:50:18;;;;;;;4.50;1.35;;;7.30;1.00;;;;;;7392663;19;20029;-71
2023/11/03 05:52:48;;;;;;;3.67;0.93;;;7.30;1.00;;;;;;7380780;19;20039;-70
2023/11/03 05:55:20;;;;;;;15.60;1.50;;;7.30;1.00;;;;;;7378085;19;20456;-70
2023/11/03 05:57:51;;;;;;;3.63;1.20;;;7.30;1.00;;;;;;7377242;19;20041;-71
2023/11/03 06:00:22;;;;;;;5.53;1.27;;;7.30;1.00;;;;;;7377937;19;20017;-70
2023/11/03 06:02:52;;;;;;;6.00;1.52;;;7.30;1.00;;;;;;7376141;19;20015;-70
2023/11/03 06:05:22;;;;;;;5.32;1.88;;;7.40;1.00;;;;;;7376245;19;20903;-71
2023/11/03 06:07:52;;;;;;;5.40;1.40;;;7.40;1.00;;;;;;7376480;19;20575;-71
2023/11/03 06:10:24;;;;;;;4.65;1.60;;;7.40;1.00;;;;;;7376190;19;20013;-69
2023/11/03 06:12:54;;;;;;;3.42;1.52;;;7.40;1.00;;;;;;7376410;19;20439;-70
2023/11/03 06:15:24;;;;;;;4.47;1.58;;;7.40;1.00;;;;;;7376055;19;20049;-70
2023/11/03 06:17:55;;;;;;;2.75;1.40;;;7.40;1.00;;;;;;7376185;19;20014;-70
2023/11/03 06:20:25;;;;;;;4.00;1.50;;;7.40;1.00;;;;;;7376500;19;20094;-70
2023/11/03 06:22:55;;;;;;;2.58;1.40;;;7.40;1.00;;;;;;7375614;19;20011;-69
2023/11/03 06:25:29;;;;;;;2.80;1.30;;;7.40;1.00;;;;;;7376777;19;20029;-70
2023/11/03 06:27:59;;;;;;;4.95;1.50;;;7.40;1.00;;;;;;7376964;19;20015;-70
2023/11/03 06:30:29;;;;;;;7.43;1.75;;;7.40;1.00;;;;;;7376343;19;20019;-70
2023/11/03 06:32:59;;;;;;;5.13;1.20;;;7.50;1.00;;;;;;7376370;19;20014;-70
2023/11/03 06:35:30;;;;;;;4.60;1.58;;;7.50;1.00;;;;;;7376263;19;20010;-70
2023/11/03 06:38:00;;;;;;;6.95;1.70;;;7.50;1.00;;;;;;7377436;19;20026;-70
2023/11/03 06:40:33;;;;;;;4.38;1.23;;;7.50;1.00;;;;;;7376953;19;20010;-70
2023/11/03 06:43:04;;;;;;;6.00;1.70;;;7.50;1.00;;;;;;7374952;19;20130;-71
2023/11/03 06:45:36;;;;;;;5.07;1.60;;;7.50;1.00;;;;;;7373496;19;21219;-70
2023/11/03 06:48:06;;;;;;;3.88;1.50;;;7.50;1.00;;;;;;7375907;19;20801;-70
2023/11/03 06:50:36;;;;;;;5.82;1.77;;;7.50;1.00;;;;;;7375367;19;20033;-71
2023/11/03 06:53:08;;;;;;;8.80;1.90;;;7.50;1.00;;;;;;7373288;19;20015;-71
2023/11/03 06:55:41;;;;;;;7.50;1.67;;;7.60;1.00;;;;;;7374310;19;20011;-70
2023/11/03 06:58:11;;;;;;;3.95;1.80;;;7.50;1.00;;;;;;7374088;19;20754;-71
2023/11/03 07:00:44;;;;;;;6.78;1.80;;;7.40;1.00;;;;;;7375696;19;20879;-71
2023/11/03 07:03:15;;;;;;;5.43;1.88;;;7.40;1.00;;;;;;7375464;19;20018;-71
2023/11/03 07:05:46;;;;;;;5.65;1.88;;;7.40;1.00;;;;;;7374879;19;20424;-71
2023/11/03 07:08:18;;;;;;;4.25;1.83;;;7.40;1.10;;;;;;7372952;19;20499;-71
2023/11/03 07:10:52;;;;;;;5.85;2.10;;;7.30;1.80;;;;;;7375110;19;20018;-71
2023/11/03 07:13:22;;;;;;;6.10;2.55;;;7.40;5.60;;;;;;7373542;19;20015;-70
2023/11/03 07:15:52;;;;;;;5.57;1.95;;;7.40;5.10;;;;;;7381397;19;20010;-70
2023/11/03 07:18:22;;;;;;;5.13;2.10;;;7.40;1.00;;;;;;7381201;19;20019;-71
2023/11/03 07:20:52;;;;;;;5.63;1.83;;;7.40;1.80;;;;;;7382521;19;20010;-71
2023/11/03 07:23:22;;;;;;;5.25;1.65;;;7.40;1.00;;;;;;7380056;19;20021;-71
2023/11/03 07:25:56;;;;;;;4.18;1.60;;;7.40;1.00;;;;;;7382983;19;20079;-71
2023/11/03 07:28:26;;;;;;;7.53;2.08;;;7.40;1.00;;;;;;7383601;19;20686;-71
2023/11/03 07:30:56;;;;;;;5.68;1.83;;;7.40;1.00;;;;;;7381564;19;20114;-71
2023/11/03 07:33:26;;;;;;;6.63;1.70;;;7.40;1.00;;;;;;7380660;19;20463;-71
2023/11/03 07:35:56;;;;;;;4.05;1.90;;;7.50;1.00;;;;;;7381358;19;20027;-71
2023/11/03 07:38:26;;;;;;;5.28;1.63;;;7.50;1.00;;;;;;7380815;19;20010;-71
2023/11/03 07:40:58;;;;;;;4.97;2.20;;;7.50;1.00;;;;;;7382978;19;20013;-71
2023/11/03 07:43:28;;;;;;;4.55;1.52;;;7.50;1.00;;;;;;7380400;19;20013;-72
2023/11/03 07:45:58;;;;;;;9.43;2.28;;;7.60;1.00;;;;;;7379378;19;20010;-71
2023/11/03 07:48:28;;;;;;;4.97;1.65;;;7.60;1.00;;;;;;7380644;19;20038;-71
2023/11/03 07:50:59;;;;;;;5.35;2.33;;;7.60;1.00;;;;;;7379603;19;20010;-70
2023/11/03 07:53:29;;;;;;;5.07;2.13;;;7.60;1.00;;;;;;7377952;19;20050;-71
2023/11/03 07:56:02;;;;;;;6.25;2.63;;;7.60;1.00;;;;;;7380953;19;20014;-70
2023/11/03 07:58:33;;;;;;;7.72;2.50;;;7.60;1.00;;;;;;7380697;19;20015;-70
2023/11/03 08:01:05;;;;;;;4.25;2.42;;;7.60;1.00;;;;;;7380916;19;20439;-70
2023/11/03 08:03:35;;;;;;;5.22;1.70;;;7.60;1.00;;;;;;7379780;19;20078;-70
2023/11/03 08:06:06;;;;;;;6.70;2.13;;;7.60;1.00;;;;;;7380091;19;20515;-71
2023/11/03 08:08:37;;;;;;;6.32;2.10;;;7.70;1.00;;;;;;7379938;19;20469;-70
2023/11/03 08:11:09;;;;;;;8.85;2.35;;;7.80;1.00;;;;;;7378339;19;20017;-70
2023/11/03 08:13:40;;;;;;;5.28;1.63;;;7.80;1.00;;;;;;7379982;19;20478;-70
2023/11/03 08:16:11;;;;;;;4.00;1.98;;;7.70;1.00;;;;;;7381128;19;20345;-70
2023/11/03 08:18:42;;;;;;;8.82;3.75;;;7.80;1.00;;;;;;7380087;19;20109;-71
2023/11/03 08:21:12;;;;;;;3.80;2.10;;;7.80;1.00;;;;;;7380645;19;20019;-70
2023/11/03 08:23:42;;;;;;;4.78;1.65;;;7.90;1.00;;;;;;7378690;19;20027;-72
2023/11/03 08:26:19;;;;;;;5.57;1.83;;;7.90;1.00;;;;;;7380859;19;20027;-70
2023/11/03 08:28:49;;;;;;;5.57;1.70;;;7.90;1.00;;;;;;7380933;19;20022;-71
2023/11/03 08:31:19;;;;;;;5.93;1.73;;;8.00;1.00;;;;;;7381091;19;20015;-71
2023/11/03 08:33:49;;;;;;;5.15;1.70;;;7.90;1.00;;;;;;7379992;19;20036;-70
2023/11/03 08:36:19;;;;;;;6.97;2.22;;;7.90;1.00;;;;;;7379339;19;20006;-71
2023/11/03 08:38:51;;;;;;;5.32;1.90;;;8.10;1.00;;;;;;7380717;19;20506;-71
2023/11/03 08:41:25;;;;;;;4.63;2.00;;;8.20;1.00;;;;;;7380389;19;20010;-71
2023/11/03 08:43:55;;;;;;;8.75;2.00;;;8.20;1.00;;;;;;7375934;19;20041;-71
2023/11/03 08:46:25;;;;;;;7.45;1.88;;;8.10;1.00;;;;;;7378627;19;20018;-72
2023/11/03 08:48:55;;;;;;;5.28;2.20;;;8.20;1.00;;;;;;7377572;19;20011;-71
2023/11/03 08:51:26;;;;;;;3.42;2.30;;;8.30;1.00;;;;;;7379753;19;20085;-72
2023/11/03 08:53:56;;;;;;;3.72;1.70;;;8.30;1.00;;;;;;7377265;19;20353;-71
2023/11/03 08:56:28;;;;;;;4.55;1.48;;;8.40;1.00;;;;;;7378600;19;20122;-71
2023/11/03 08:58:58;;;;;;;4.68;1.48;;;8.50;1.00;;;;;;7379804;19;20010;-71
2023/11/03 09:01:28;;;;;;;18.20;12.13;;;8.60;1.00;;;;;;7378570;19;20010;-71
2023/11/03 09:03:59;;;;;;;6.78;3.22;;;8.70;1.00;;;;;;7377445;19;20090;-71
2023/11/03 09:06:29;;;;;;;2.65;1.90;;;9.00;1.00;;;;;;7378867;19;20007;-71
2023/11/03 09:08:59;;;;;;;6.13;1.77;;;8.90;1.00;;;;;;7378044;19;20021;-71
2023/11/03 09:11:32;;;;;;;3.97;1.45;;;9.00;1.00;;;;;;7379022;19;20041;-71
2023/11/03 09:14:06;;;;;;;5.97;1.40;;;8.90;1.00;;;;;;7377350;19;20014;-71
2023/11/03 09:16:36;;;;;;;4.65;1.35;;;8.90;1.00;;;;;;7379262;19;20502;-71
2023/11/03 09:19:06;;;;;;;4.45;1.85;;;9.00;1.00;;;;;;7378335;19;20479;-71
2023/11/03 09:21:38;;;;;;;4.32;1.75;;;9.10;1.00;;;;;;7380091;19;20017;-71
2023/11/03 09:24:08;;;;;;;5.28;1.48;;;9.00;1.00;;;;;;7377252;19;20048;-71
2023/11/03 09:26:41;;;;;;;4.75;1.42;;;9.00;1.00;;;;;;7378444;19;20085;-70
2023/11/03 09:29:11;;;;;;;4.25;1.90;;;9.00;1.00;;;;;;7378069;19;20034;-72
2023/11/03 09:31:41;;;;;;;6.78;1.70;;;9.10;1.00;;;;;;7378964;19;20027;-72
2023/11/03 09:34:11;;;;;;;4.25;1.77;;;9.10;1.00;;;;;;7376154;19;20010;-71
2023/11/03 09:36:41;;;;;;;4.90;1.90;;;9.20;1.00;;;;;;7377505;19;20011;-72
2023/11/03 09:39:11;;;;;;;5.22;1.30;;;9.30;1.00;;;;;;7377901;19;20122;-71
2023/11/03 09:41:52;;;;;;;3.42;1.13;;;9.20;1.00;;;;;;7378179;19;20007;-71
2023/11/03 09:44:22;;;;;;;3.35;1.10;;;9.20;1.00;;;;;;7372137;19;20010;-72
2023/11/03 09:46:55;;;;;;;2.72;1.15;;;9.10;1.00;;;;;;7379029;19;20007;-71
2023/11/03 09:49:24;;;;;;;4.53;1.10;;;9.10;1.00;;;;;;7378211;19;20070;-70
2023/11/03 09:52:01;;;;;;;3.97;1.38;;;9.10;1.00;;;;;;7378658;19;20025;-72
2023/11/03 09:54:33;;;;;;;4.10;1.42;;;9.20;1.00;;;;;;7376244;19;20347;-70
2023/11/03 09:57:08;;;;;;;2.55;1.15;;;9.30;1.00;;;;;;7378419;19;20085;-71
2023/11/03 09:59:40;;;;;;;4.32;1.13;;;9.30;1.00;;;;;;7376607;19;20021;-70
2023/11/03 10:02:15;;;;;;;3.95;1.42;;;9.50;1.00;;;;;;7377147;19;20085;-70
2023/11/03 10:04:45;;;;;;;7.82;1.00;;;9.70;1.00;;;;;;7375863;19;20526;-71
2023/11/03 10:07:16;;;;;;;2.30;1.17;;;9.50;1.00;;;;;;7377075;19;20451;-71
2023/11/03 10:09:47;;;;;;;3.65;1.30;;;9.50;1.00;;;;;;7376351;19;20387;-71
2023/11/03 10:12:20;;;;;;;3.08;1.23;;;9.60;1.00;;;;;;7375605;19;20031;-72
2023/11/03 10:14:50;;;;;;;2.80;0.82;;;9.70;1.00;;;;;;7376342;19;20684;-71
2023/11/03 10:17:20;;;;;;;4.05;1.02;;;9.70;1.00;;;;;;7375394;19;20090;-71
2023/11/03 10:19:50;;;;;;;3.70;0.98;;;9.60;1.00;;;;;;7376469;19;20014;-70
2023/11/03 10:22:25;;;;;;;1.95;1.20;;;9.70;1.00;;;;;;7376407;19;19999;-71
2023/11/03 10:24:56;;;;;;;1.27;0.50;;;9.90;1.00;;;;;;7374864;19;20020;-72
2023/11/03 10:27:28;;;;;;;1.50;0.60;;;9.70;1.00;;;;;;7375813;19;20010;-71
2023/11/03 10:29:59;;;;;;;3.22;1.13;;;9.80;1.00;;;;;;7375637;19;20028;-72
2023/11/03 10:32:30;;;;;;;2.13;0.70;;;9.60;1.00;;;;;;7376169;19;20041;-71
2023/11/03 10:35:00;;;;;;;2.45;0.80;;;9.70;1.00;;;;;;7375287;19;20035;-73
2023/11/03 10:37:32;;;;;;;1.73;0.85;;;9.40;1.00;;;;;;7374123;19;20093;-71
2023/11/03 10:40:02;;;;;;;2.17;1.10;;;9.70;1.00;;;;;;7377167;19;20045;-71
2023/11/03 10:42:41;;;;;;;2.08;0.73;;;9.80;1.00;;;;;;7380458;19;20021;-70
2023/11/03 10:45:13;;;;;;;2.97;1.40;;;9.70;1.00;;;;;;7375744;19;20479;-70
2023/11/03 10:47:53;;;;;;;5.57;0.93;;;9.80;1.00;;;;;;7377465;19;20094;-71
2023/11/03 10:50:26;;;;;;;2.65;0.63;;;9.80;1.00;;;;;;7382397;19;20011;-71
2023/11/03 10:53:09;;;;;;;1.45;0.60;;;9.80;1.00;;;;;;7380936;19;20385;-73
2023/11/03 10:55:46;;;;;;;2.33;0.95;;;9.90;1.00;;;;;;7076500;19;2004151;-71
2023/11/03 10:58:19;;;;;;;2.10;0.50;;;9.80;1.00;;;;;;7383521;19;20022;-72
2023/11/03 11:00:58;;;;;;;1.33;0.60;;;9.60;1.00;;;;;;7383492;19;20443;-72
2023/11/03 11:03:31;;;;;;;1.27;0.50;;;10.00;1.00;;;;;;7374804;19;20011;-73
2023/11/03 11:06:11;;;;;;;1.75;0.50;;;10.00;1.00;;;;;;7383066;19;20015;-72
2023/11/03 11:08:45;;;;;;;2.22;0.77;;;10.10;1.00;;;;;;7382967;19;20454;-72
2023/11/03 11:11:15;;;;;;;4.67;3.23;;;10.10;1.00;;;;;;7383600;19;20010;-71
2023/11/03 11:13:49;;;;;;;2.90;0.73;;;10.20;1.00;;;;;;7381461;19;20362;-72
2023/11/03 11:16:22;;;;;;;1.95;0.88;;;10.30;1.00;;;;;;7383179;19;20010;-71
2023/11/03 11:18:56;;;;;;;2.72;0.70;;;9.90;1.00;;;;;;7382661;19;20011;-72
2023/11/03 11:21:34;;;;;;;2.90;1.00;;;9.80;1.00;;;;;;7376664;19;20071;-71
2023/11/03 11:24:11;;;;;;;3.28;1.05;;;9.90;1.00;;;;;;7381404;19;20018;-71
2023/11/03 11:26:41;;;;;;;0.93;0.50;;;9.90;1.00;;;;;;7381335;19;20019;-72
2023/11/03 11:29:27;;;;;;;2.00;0.60;;;9.90;1.00;;;;;;7382114;19;20018;-72
2023/11/03 11:32:08;;;;;;;3.25;0.68;;;9.80;1.00;;;;;;7379251;19;20425;-75
2023/11/03 11:34:40;;;;;;;2.78;1.42;;;9.80;1.00;;;;;;7381869;19;20017;-71
2023/11/03 11:37:27;;;;;;;2.90;0.63;;;10.00;1.00;;;;;;7380261;19;20042;-72
2023/11/03 11:39:59;;;;;;;5.10;0.90;;;10.10;1.00;;;;;;7384179;19;20466;-71
2023/11/03 11:42:31;;;;;;;2.13;0.77;;;10.00;1.00;;;;;;7375752;19;20017;-72
2023/11/03 11:45:05;;;;;;;1.70;0.70;;;9.90;1.00;;;;;;7380175;19;20117;-71
2023/11/03 11:47:36;;;;;;;;;;;10.10;1.00;;;;;;7380776;19;20103;-72
2023/11/03 11:50:08;;;;;;;2.20;0.80;;;10.10;1.00;;;;;;7380097;19;19925;-72
2023/11/03 11:52:45;;;;;;;2.47;0.75;;;9.90;1.00;;;;;;7381070;19;20045;-71
2023/11/03 11:55:16;;;;;;;3.67;0.90;;;9.80;1.00;;;;;;7379212;19;20006;-71
2023/11/03 11:57:57;;;;;;;2.83;1.20;;;10.00;1.00;;;;;;7380864;19;20018;-71
2023/11/03 12:00:30;;;;;;;1.40;0.80;;;10.00;1.00;;;;;;7380787;19;20035;-71
2023/11/03 12:03:09;;;;;;;2.15;0.85;;;10.00;1.00;;;;;;7377593;19;20018;-72
2023/11/03 12:05:40;;;;;;;3.25;1.02;;;9.90;1.00;;;;;;7381302;19;20478;-71
2023/11/03 12:08:15;;;;;;;2.25;0.85;;;10.10;1.00;;;;;;7381534;19;20509;-71
2023/11/03 12:10:50;;;;;;;1.45;0.90;;;9.90;1.00;;;;;;7381138;19;20031;-72
2023/11/03 12:13:20;;;;;;;1.50;0.60;;;9.90;1.00;;;;;;7380594;19;20463;-72
2023/11/03 12:15:53;;;;;;;2.78;0.77;;;9.80;1.00;;;;;;7381837;19;20039;-72
2023/11/03 12:18:24;;;;;;;2.25;0.98;;;9.90;1.00;;;;;;7381750;19;20014;-72
2023/11/03 12:21:02;;;;;;;1.95;1.00;;;9.90;1.00;;;;;;7379644;19;20018;-73
2023/11/03 12:23:33;;;;;;;2.20;0.80;;;10.00;1.00;;;;;;7379550;19;20014;-73
2023/11/03 12:26:04;;;;;;;4.10;0.90;;;9.80;1.00;;;;;;7381516;19;20018;-72
2023/11/03 12:28:35;;;;;;;1.58;0.73;;;9.70;1.00;;;;;;7380696;19;20014;-71
2023/11/03 12:31:11;;;;;;;5.05;3.28;;;9.80;1.00;;;;;;7381302;19;20010;-72
2023/11/03 12:34:03;;;;;;;3.33;0.73;;;9.80;1.00;;;;;;7380376;19;20010;-72
2023/11/03 12:36:33;;;;;;;2.58;1.00;;;9.70;1.00;;;;;;7377093;19;20018;-73
2023/11/03 12:39:08;;;;;;;;;;;9.80;1.00;;;;;;7379360;19;20367;-72
2023/11/03 12:41:41;;;;;;;4.40;1.40;;;9.70;1.00;;;;;;7381416;19;20614;-72
2023/11/03 12:44:11;;;;;;;3.10;0.85;;;9.90;1.00;;;;;;7379238;19;20014;-71
2023/11/03 12:46:51;;;;;;;2.10;0.98;;;10.00;1.00;;;;;;7379609;19;20007;-71
2023/11/03 12:49:23;;;;;;;4.47;1.63;;;9.80;1.00;;;;;;7380099;19;20027;-71
2023/11/03 12:51:53;;;;;;;4.53;1.50;;;10.10;1.00;;;;;;7382306;19;20074;-71
2023/11/03 12:54:24;;;;;;;3.15;1.30;;;10.20;1.00;;;;;;7379206;19;20036;-72
2023/11/03 12:56:58;;;;;;;2.50;0.98;;;10.10;1.00;;;;;;7376826;19;20020;-72
2023/11/03 12:59:29;;;;;;;3.75;1.25;;;10.00;1.00;;;;;;7375896;19;20010;-72
2023/11/03 13:02:26;;;;;;;1.52;0.70;;;10.00;1.00;;;;;;6868290;19;2003944;-72
2023/11/03 13:05:04;;;;;;;1.60;0.98;;;9.90;1.00;;;;;;7376355;19;20592;-72
2023/11/03 13:07:34;;;;;;;4.60;1.48;;;10.00;1.00;;;;;;7378328;19;20014;-73
2023/11/03 13:10:10;;;;;;;2.25;1.10;;;9.90;1.00;;;;;;7379624;19;20760;-71
2023/11/03 13:12:43;;;;;;;2.45;1.00;;;9.80;1.00;;;;;;7376389;19;20661;-72
2023/11/03 13:15:16;;;;;;;4.97;1.33;;;9.80;1.00;;;;;;7379306;19;20014;-71
2023/11/03 13:17:49;;;;;;;3.45;1.17;;;9.80;1.00;;;;;;7379907;19;20035;-72
2023/11/03 13:20:27;;;;;;;4.25;1.13;;;9.80;1.00;;;;;;7378539;19;20037;-70
2023/11/03 13:23:02;;;;;;;2.15;0.77;;;9.80;1.00;;;;;;7376609;19;20347;-71
2023/11/03 13:25:33;;;;;;;2.30;0.80;;;9.50;1.00;;;;;;7376200;19;20397;-71
2023/11/03 13:28:04;;;;;;;2.72;0.90;;;9.60;1.00;;;;;;7373958;19;20404;-71